createdAt,value
2018-01-13T00:01:25.771Z,92.40
2018-01-13T00:03:54.559Z,92.40
2018-01-13T00:06:23.352Z,92.50
2018-01-13T00:08:52.145Z,92.60
2018-01-13T00:11:20.948Z,92.60
2018-01-13T00:13:49.751Z,92.70
2018-01-13T00:16:18.585Z,92.60
2018-01-13T00:18:47.376Z,92.50
2018-01-13T00:21:16.173Z,92.50
2018-01-13T00:23:45.001Z,92.60
2018-01-13T00:26:13.791Z,92.60
2018-01-13T00:28:42.601Z,92.50
2018-01-13T00:31:11.428Z,92.50
2018-01-13T00:33:40.204Z,92.50
2018-01-13T00:36:09.733Z,92.40
2018-01-13T00:38:38.565Z,92.40
2018-01-13T00:41:07.390Z,92.40
2018-01-13T00:43:36.186Z,92.40
2018-01-13T00:46:04.913Z,92.40
2018-01-13T00:48:33.684Z,92.50
2018-01-13T00:51:02.502Z,92.30
2018-01-13T00:53:31.269Z,92.40
2018-01-13T00:56:00.885Z,92.50
2018-01-13T00:58:29.654Z,92.50
2018-01-13T01:00:58.457Z,92.50
2018-01-13T01:03:27.262Z,92.40
2018-01-13T01:05:56.025Z,92.40
2018-01-13T01:08:24.801Z,92.20
2018-01-13T01:10:53.568Z,92.30
2018-01-13T01:13:22.363Z,92.40
2018-01-13T01:15:51.916Z,92.50
2018-01-13T01:18:21.446Z,92.30
2018-01-13T01:20:50.218Z,92.40
2018-01-13T01:23:19.148Z,92.50
2018-01-13T01:25:48.809Z,92.40
2018-01-13T01:28:17.597Z,92.40
2018-01-13T01:30:46.377Z,92.40
2018-01-13T01:33:15.118Z,92.40
2018-01-13T01:35:44.689Z,92.50
2018-01-13T01:38:13.512Z,92.90
2018-01-13T01:40:42.269Z,92.50
2018-01-13T01:43:11.023Z,92.50
2018-01-13T01:45:39.741Z,92.50
2018-01-13T01:48:07.825Z,92.60
2018-01-13T01:50:36.584Z,92.60
2018-01-13T01:53:05.370Z,92.50
2018-01-13T01:55:34.383Z,92.30
2018-01-13T01:58:03.187Z,92.30
2018-01-13T02:00:32.002Z,92.40
2018-01-13T02:03:00.746Z,92.50
2018-01-13T02:05:29.550Z,92.50
2018-01-13T02:07:58.306Z,92.50
2018-01-13T02:10:27.126Z,92.50
2018-01-13T02:12:55.914Z,92.50
2018-01-13T02:15:24.753Z,92.60
2018-01-13T02:17:53.087Z,92.50
2018-01-13T02:20:21.862Z,92.50
2018-01-13T02:22:50.620Z,92.40
2018-01-13T02:25:20.166Z,92.40
2018-01-13T02:27:48.984Z,92.40
2018-01-13T02:30:17.955Z,92.40
2018-01-13T02:32:46.747Z,92.20
2018-01-13T02:35:15.573Z,92.20
2018-01-13T02:37:44.398Z,92.20
2018-01-13T02:40:13.240Z,92.00
2018-01-13T02:42:42.046Z,92.00
2018-01-13T02:45:11.642Z,92.00
2018-01-13T02:47:41.362Z,92.00
2018-01-13T02:50:10.960Z,92.10
2018-01-13T02:52:40.608Z,92.20
2018-01-13T02:55:09.386Z,92.20
2018-01-13T02:57:38.182Z,91.90
2018-01-13T03:00:07.214Z,92.00
2018-01-13T03:02:36.309Z,92.00
2018-01-13T03:05:05.191Z,92.00
2018-01-13T03:07:34.178Z,92.10
2018-01-13T03:10:02.971Z,92.10
2018-01-13T03:12:31.815Z,92.10
2018-01-13T03:15:00.662Z,92.20
2018-01-13T03:17:29.492Z,92.10
2018-01-13T03:19:58.274Z,92.20
2018-01-13T03:22:27.069Z,92.10
2018-01-13T03:24:55.869Z,92.00
2018-01-13T03:27:25.457Z,91.90
2018-01-13T03:29:54.283Z,91.90
2018-01-13T03:32:22.934Z,92.00
2018-01-13T03:34:51.845Z,91.90
2018-01-13T03:37:21.381Z,91.90
2018-01-13T03:39:50.545Z,92.00
2018-01-13T03:42:20.178Z,91.80
2018-01-13T03:44:49.002Z,91.80
2018-01-13T03:47:17.821Z,91.70
2018-01-13T03:49:47.429Z,91.70
2018-01-13T03:52:16.227Z,91.70
2018-01-13T03:54:44.993Z,91.70
2018-01-13T03:57:13.782Z,91.70
2018-01-13T03:59:43.454Z,91.80
2018-01-13T04:02:12.863Z,91.80
2018-01-13T04:04:42.269Z,91.70
2018-01-13T04:07:11.134Z,91.80
2018-01-13T04:09:39.981Z,91.90
2018-01-13T04:12:08.935Z,91.70
2018-01-13T04:14:37.731Z,91.90
2018-01-13T04:17:06.612Z,91.90
2018-01-13T04:19:35.622Z,92.00
2018-01-13T04:22:06.141Z,92.00
2018-01-13T04:24:35.455Z,92.00
2018-01-13T04:27:05.266Z,92.10
2018-01-13T04:29:34.708Z,91.90
2018-01-13T04:32:03.593Z,92.00
2018-01-13T04:34:33.425Z,92.00
2018-01-13T04:37:02.730Z,92.00
2018-01-13T04:39:32.334Z,92.00
2018-01-13T04:42:01.581Z,92.00
2018-01-13T04:44:30.123Z,92.00
2018-01-13T04:46:59.026Z,92.00
2018-01-13T04:49:28.679Z,92.20
2018-01-13T04:51:57.600Z,92.20
2018-01-13T04:54:26.416Z,92.40
2018-01-13T04:56:55.596Z,92.30
2018-01-13T04:59:24.566Z,92.40
2018-01-13T05:01:53.415Z,92.20
2018-01-13T05:04:22.311Z,92.30
2018-01-13T05:06:51.265Z,92.20
2018-01-13T05:09:20.117Z,92.20
2018-01-13T05:11:48.876Z,92.30
2018-01-13T05:14:17.682Z,92.10
2018-01-13T05:16:46.566Z,92.20
2018-01-13T05:19:15.389Z,92.30
2018-01-13T05:21:44.533Z,92.20
2018-01-13T05:24:13.843Z,92.10
2018-01-13T05:26:42.694Z,92.00
2018-01-13T05:29:11.517Z,92.20
2018-01-13T05:31:40.334Z,92.10
2018-01-13T05:34:09.231Z,92.10
2018-01-13T05:36:38.103Z,91.90
2018-01-13T05:39:07.526Z,92.00
2018-01-13T05:41:36.374Z,91.90
2018-01-13T05:44:05.531Z,91.70
2018-01-13T05:46:34.359Z,91.70
2018-01-13T05:49:03.262Z,91.80
2018-01-13T05:51:32.645Z,91.90
2018-01-13T05:54:02.321Z,92.30
2018-01-13T05:56:31.201Z,92.10
2018-01-13T05:59:00.175Z,92.10
2018-01-13T06:01:28.849Z,91.80
2018-01-13T06:03:57.657Z,91.60
2018-01-13T06:06:26.553Z,91.60
2018-01-13T06:08:55.390Z,91.60
2018-01-13T06:11:23.928Z,91.60
2018-01-13T06:13:52.761Z,91.70
2018-01-13T06:16:21.628Z,91.70
2018-01-13T06:18:50.714Z,91.70
2018-01-13T06:21:19.531Z,91.80
2018-01-13T06:23:48.351Z,91.70
2018-01-13T06:26:17.112Z,91.90
2018-01-13T06:28:45.901Z,91.90
2018-01-13T06:31:15.591Z,91.90
2018-01-13T06:33:44.497Z,91.90
2018-01-13T06:36:13.550Z,91.90
2018-01-13T06:38:42.733Z,92.00
2018-01-13T06:41:11.619Z,91.90
2018-01-13T06:43:40.879Z,92.00
2018-01-13T06:46:09.877Z,92.00
2018-01-13T06:48:39.422Z,91.90
2018-01-13T06:51:09.237Z,91.90
2018-01-13T06:53:38.113Z,91.90
2018-01-13T06:56:07.027Z,92.20
2018-01-13T06:58:36.598Z,92.20
2018-01-13T07:01:05.448Z,92.20
2018-01-13T07:03:34.418Z,92.20
2018-01-13T07:06:03.355Z,92.10
2018-01-13T07:08:32.308Z,92.00
2018-01-13T07:11:01.327Z,92.00
2018-01-13T07:13:31.250Z,92.00
2018-01-13T07:19:30.509Z,91.90
2018-01-13T07:22:01.443Z,91.80
2018-01-13T07:27:06.766Z,91.90
2018-01-13T07:29:37.110Z,91.80
2018-01-13T07:32:09.112Z,91.80
2018-01-13T07:34:43.969Z,92.10
2018-01-13T07:39:56.717Z,92.00
2018-01-13T07:42:29.323Z,92.30
2018-01-13T07:45:00.241Z,92.00
2018-01-13T07:50:45.848Z,91.90
2018-01-13T07:53:15.601Z,91.60
2018-01-13T07:55:45.110Z,91.70
2018-01-13T08:04:48.974Z,92.00
2018-01-13T08:07:17.581Z,92.20
2018-01-13T08:51:43.985Z,91.40
2018-01-13T09:08:08.886Z,91.50
2018-01-13T09:10:48.450Z,91.60
2018-01-13T09:16:35.242Z,91.50
2018-01-13T09:19:04.207Z,91.40
2018-01-13T09:21:33.376Z,91.30
2018-01-13T09:24:05.992Z,91.30
2018-01-13T09:26:34.929Z,91.30
2018-01-13T09:29:03.878Z,91.00
2018-01-13T09:31:33.726Z,91.10
2018-01-13T09:42:18.235Z,90.80
2018-01-13T09:44:53.154Z,91.10
2018-01-13T09:47:26.187Z,91.00
2018-01-13T09:49:57.604Z,91.00
2018-01-13T09:57:44.580Z,90.70
2018-01-13T10:00:14.838Z,90.90
2018-01-13T10:02:48.728Z,90.90
2018-01-13T10:05:25.808Z,90.80
2018-01-13T10:07:58.471Z,91.00
2018-01-13T10:13:06.300Z,91.10
2018-01-13T10:15:43.713Z,91.30
2018-01-13T10:18:19.892Z,91.40
2018-01-13T10:20:51.452Z,90.70
2018-01-13T10:26:08.007Z,90.90
2018-01-13T10:28:41.230Z,91.10
2018-01-13T10:33:49.414Z,90.50
2018-01-13T11:00:45.369Z,89.20
2018-01-13T11:05:53.562Z,87.70
2018-01-13T11:08:38.871Z,88.40
2018-01-13T11:16:58.320Z,88.30
2018-01-13T11:22:36.791Z,87.00
2018-01-13T11:27:47.411Z,87.60
2018-01-13T11:30:20.685Z,88.50
2018-01-13T11:35:34.814Z,89.30
2018-01-13T11:41:03.170Z,86.70
2018-01-13T11:43:36.532Z,87.30
2018-01-13T11:46:18.420Z,89.80
2018-01-13T11:48:52.680Z,89.90
2018-01-13T11:54:04.584Z,89.40
2018-01-13T11:56:33.310Z,88.20
2018-01-13T11:59:03.135Z,89.40
2018-01-13T12:01:32.069Z,89.40
2018-01-13T12:04:00.993Z,88.30
2018-01-13T12:06:29.754Z,89.50
2018-01-13T12:08:58.479Z,90.10
2018-01-13T12:11:28.211Z,89.70
2018-01-13T12:13:56.878Z,88.90
2018-01-13T12:16:25.783Z,89.10
2018-01-13T12:18:54.665Z,89.10
2018-01-13T12:21:24.177Z,90.00
2018-01-13T12:23:54.979Z,89.80
2018-01-13T12:26:24.874Z,88.70
2018-01-13T12:28:53.939Z,88.80
2018-01-13T12:31:23.006Z,89.30
2018-01-13T12:33:51.905Z,89.80
2018-01-13T12:36:21.309Z,90.30
2018-01-13T12:38:50.227Z,89.70
2018-01-13T12:41:19.442Z,90.00
2018-01-13T12:43:48.298Z,90.00
2018-01-13T12:46:17.163Z,90.40
2018-01-13T12:48:45.842Z,89.50
2018-01-13T12:56:26.195Z,90.00
2018-01-13T12:59:33.711Z,89.70
2018-01-13T13:15:18.588Z,89.70
2018-01-13T13:51:18.484Z,90.70
2018-01-13T13:53:50.659Z,90.50
2018-01-13T13:57:07.333Z,90.40
2018-01-13T14:46:57.094Z,90.40
2018-01-13T14:52:28.285Z,90.60
2018-01-13T14:58:02.500Z,90.80
2018-01-13T15:16:49.545Z,91.50
2018-01-13T15:22:45.210Z,91.30
2018-01-13T15:28:06.840Z,91.40
2018-01-13T15:30:43.131Z,91.40
2018-01-13T16:57:54.584Z,91.30
2018-01-13T17:47:22.770Z,91.40
2018-01-13T17:55:03.435Z,91.20
2018-01-13T17:57:37.965Z,91.30
2018-01-13T18:00:07.666Z,91.40
2018-01-13T18:02:36.401Z,91.50
2018-01-13T18:05:05.938Z,91.50
2018-01-13T18:47:28.905Z,91.10
2018-01-13T18:49:58.674Z,91.10
2018-01-13T18:52:37.953Z,91.10
2018-01-13T18:55:06.610Z,91.00
2018-01-13T18:57:40.199Z,91.10
2018-01-13T19:00:19.414Z,91.30
2018-01-13T19:02:54.609Z,91.20
2018-01-13T19:05:23.719Z,91.20
2018-01-13T19:13:47.840Z,91.30
2018-01-13T19:19:07.209Z,91.10
2018-01-13T19:30:38.229Z,91.00
2018-01-13T19:33:23.981Z,91.30
2018-01-13T19:38:42.896Z,90.80
2018-01-13T19:41:15.185Z,90.80
2018-01-13T19:46:18.446Z,90.90
2018-01-13T19:48:47.302Z,90.90
2018-01-13T19:51:16.098Z,91.00
2018-01-13T19:53:44.865Z,91.10
2018-01-13T19:56:14.897Z,91.00
2018-01-13T19:58:44.454Z,91.10
2018-01-13T20:01:14.226Z,91.10
2018-01-13T20:03:42.979Z,90.80
2018-01-13T20:06:11.900Z,90.70
2018-01-13T20:08:40.718Z,90.80
2018-01-13T21:39:35.496Z,91.70
2018-01-13T21:44:57.941Z,91.70
2018-01-13T21:47:27.619Z,91.60
2018-01-13T21:49:57.453Z,91.60
2018-01-13T21:52:27.902Z,91.60
2018-01-13T21:54:56.925Z,92.10
2018-01-13T21:57:26.702Z,91.80
2018-01-13T21:59:57.186Z,91.80
2018-01-13T22:02:35.579Z,91.80
2018-01-13T22:05:05.377Z,91.80
2018-01-13T22:07:35.255Z,91.80
2018-01-13T22:10:05.310Z,92.00
2018-01-13T22:12:34.457Z,91.70
2018-01-13T22:15:03.398Z,91.60
2018-01-13T22:17:33.497Z,91.50
2018-01-13T22:20:03.095Z,91.60
2018-01-13T22:22:32.139Z,91.70
2018-01-13T22:25:01.002Z,91.70
2018-01-13T22:27:30.437Z,91.70
2018-01-13T22:30:01.252Z,91.70
2018-01-13T22:32:29.909Z,91.70
2018-01-13T22:34:58.665Z,91.70
2018-01-13T22:37:27.647Z,91.70
2018-01-13T22:40:13.469Z,91.80
2018-01-13T22:42:42.463Z,91.60
2018-01-13T23:13:15.038Z,90.80
2018-01-13T23:18:25.063Z,90.80
2018-01-13T23:20:56.569Z,90.70
2018-01-13T23:26:19.361Z,91.00
2018-01-13T23:28:53.704Z,90.90
2018-01-13T23:36:50.970Z,90.90
2018-01-13T23:39:23.109Z,90.80
2018-01-13T23:44:41.503Z,90.80
2018-01-13T23:47:20.850Z,91.00
2018-01-13T23:49:56.025Z,90.80
2018-01-13T23:52:25.468Z,90.70
2018-01-13T23:57:41.613Z,90.70
